createdAt,value
2023-01-13T00:02:45.471Z,68.80
2023-01-13T00:05:49.813Z,69.05
2023-01-13T00:08:54.568Z,68.36
2023-01-13T00:12:01.351Z,67.49
2023-01-13T00:15:05.022Z,67.68
2023-01-13T00:18:08.768Z,68.31
2023-01-13T00:21:18.880Z,69.55
2023-01-13T00:24:25.558Z,68.60
2023-01-13T00:27:31.980Z,68.03
2023-01-13T00:30:40.645Z,68.19
2023-01-13T00:33:44.727Z,67.45
2023-01-13T00:36:48.804Z,66.74
2023-01-13T00:39:52.383Z,66.78
2023-01-13T00:43:21.402Z,67.34
2023-01-13T00:46:25.324Z,66.23
2023-01-13T00:49:29.659Z,66.66
2023-01-13T00:52:34.747Z,66.24
2023-01-13T00:55:41.149Z,66.01
2023-01-13T00:58:47.724Z,66.34
2023-01-13T01:01:57.918Z,65.77
2023-01-13T01:05:12.077Z,65.79
2023-01-13T01:08:16.979Z,65.99
2023-01-13T01:11:23.297Z,65.46
2023-01-13T01:14:29.437Z,65.00
2023-01-13T01:17:33.575Z,65.07
2023-01-13T01:20:38.299Z,65.10
2023-01-13T01:23:42.324Z,63.74
2023-01-13T01:26:47.251Z,64.61
2023-01-13T01:29:52.210Z,64.99
2023-01-13T01:32:57.369Z,64.47
2023-01-13T01:36:05.041Z,64.95
2023-01-13T01:39:09.195Z,65.00
2023-01-13T01:42:34.763Z,66.11
2023-01-13T01:45:42.866Z,65.97
2023-01-13T01:48:46.792Z,67.74
2023-01-13T01:51:55.124Z,68.07
2023-01-13T01:55:03.182Z,66.63
2023-01-13T01:58:17.284Z,66.59
2023-01-13T02:01:22.917Z,66.00
2023-01-13T02:04:32.177Z,66.78
2023-01-13T02:07:39.933Z,66.19
2023-01-13T02:10:47.455Z,66.62
2023-01-13T02:13:51.471Z,66.29
2023-01-13T02:17:46.901Z,66.01
2023-01-13T02:21:04.397Z,66.20
2023-01-13T02:24:50.064Z,65.85
2023-01-13T02:28:15.929Z,64.50
2023-01-13T02:31:43.232Z,64.42
2023-01-13T02:34:56.763Z,64.13
2023-01-13T02:38:30.147Z,64.86
2023-01-13T02:41:58.216Z,64.23
2023-01-13T02:45:08.849Z,63.66
2023-01-13T02:48:17.611Z,63.58
2023-01-13T02:51:25.869Z,62.95
2023-01-13T02:54:31.821Z,62.62
2023-01-13T02:57:38.367Z,63.47
2023-01-13T03:00:43.962Z,64.06
2023-01-13T03:03:50.190Z,64.43
2023-01-13T03:07:03.442Z,64.37
2023-01-13T03:10:17.801Z,64.16
2023-01-13T03:13:53.577Z,65.39
2023-01-13T03:17:28.566Z,64.65
2023-01-13T03:20:41.838Z,65.08
2023-01-13T03:23:53.044Z,65.53
2023-01-13T03:27:05.447Z,65.27
2023-01-13T03:30:17.344Z,65.28
2023-01-13T03:33:28.400Z,64.65
2023-01-13T03:36:35.510Z,64.01
2023-01-13T03:39:43.505Z,64.76
2023-01-13T03:43:14.481Z,64.95
2023-01-13T03:46:29.231Z,65.32
2023-01-13T03:49:41.103Z,63.93
2023-01-13T03:52:50.164Z,63.96
2023-01-13T03:55:58.925Z,65.58
2023-01-13T03:59:07.009Z,65.70
2023-01-13T04:02:19.565Z,66.38
2023-01-13T04:05:24.881Z,65.12
2023-01-13T04:08:31.295Z,65.02
2023-01-13T04:11:41.234Z,66.08
2023-01-13T04:14:45.957Z,65.43
2023-01-13T04:17:49.702Z,65.22
2023-01-13T04:21:00.112Z,64.89
2023-01-13T04:24:06.907Z,63.88
2023-01-13T04:27:12.292Z,63.83
2023-01-13T04:30:16.064Z,64.63
2023-01-13T04:33:21.268Z,64.10
2023-01-13T04:36:27.729Z,63.40
2023-01-13T04:39:33.149Z,63.71
2023-01-13T04:42:37.242Z,63.15
2023-01-13T04:45:41.732Z,65.22
2023-01-13T04:48:45.355Z,64.81
2023-01-13T04:51:50.350Z,64.71
2023-01-13T04:55:02.302Z,65.36
2023-01-13T04:58:07.246Z,64.92
2023-01-13T05:01:11.218Z,63.44
2023-01-13T05:04:17.354Z,63.62
2023-01-13T05:07:21.733Z,62.73
2023-01-13T05:10:28.294Z,63.04
2023-01-13T05:13:49.115Z,63.31
2023-01-13T05:17:01.885Z,62.30
2023-01-13T05:20:06.509Z,63.63
2023-01-13T05:23:27.768Z,66.18
2023-01-13T05:26:32.966Z,65.32
2023-01-13T05:29:37.206Z,65.43
2023-01-13T05:32:41.405Z,66.36
2023-01-13T05:35:49.740Z,64.93
2023-01-13T05:38:53.436Z,64.60
2023-01-13T05:42:19.219Z,65.15
2023-01-13T05:45:22.955Z,63.84
2023-01-13T05:48:29.468Z,64.11
2023-01-13T05:51:32.953Z,63.13
2023-01-13T05:54:37.762Z,62.96
2023-01-13T05:57:42.672Z,63.99
2023-01-13T06:00:47.599Z,63.40
2023-01-13T06:03:52.239Z,63.11
2023-01-13T06:06:56.790Z,63.33
2023-01-13T06:10:00.341Z,63.52
2023-01-13T06:13:05.908Z,62.92
2023-01-13T06:16:34.394Z,62.90
2023-01-13T06:19:38.477Z,62.64
2023-01-13T06:22:45.731Z,62.42
2023-01-13T06:26:20.227Z,62.88
2023-01-13T06:29:25.018Z,62.64
2023-01-13T06:32:33.865Z,62.32
2023-01-13T06:35:43.980Z,61.61
2023-01-13T06:38:51.176Z,61.58
2023-01-13T06:42:13.275Z,61.89
2023-01-13T06:45:19.735Z,62.25
2023-01-13T06:48:25.996Z,62.67
2023-01-13T06:51:30.280Z,62.49
2023-01-13T06:54:34.749Z,65.13
2023-01-13T06:58:09.477Z,64.22
2023-01-13T07:01:14.611Z,64.59
2023-01-13T07:04:20.711Z,63.15
2023-01-13T07:07:24.516Z,64.34
2023-01-13T07:10:28.556Z,63.46
2023-01-13T07:13:50.552Z,64.50
2023-01-13T07:16:56.300Z,64.50
2023-01-13T07:20:00.742Z,63.62
2023-01-13T07:23:06.953Z,63.10
2023-01-13T07:26:12.231Z,63.22
2023-01-13T07:29:18.861Z,63.88
2023-01-13T07:32:24.282Z,63.52
2023-01-13T07:35:28.577Z,63.52
2023-01-13T07:38:58.348Z,62.77
2023-01-13T07:42:20.651Z,63.36
2023-01-13T07:45:24.247Z,63.24
2023-01-13T07:48:36.088Z,63.67
2023-01-13T07:51:41.370Z,63.86
2023-01-13T07:54:45.604Z,64.28
2023-01-13T07:58:09.611Z,64.34
2023-01-13T08:01:16.879Z,64.20
2023-01-13T08:04:22.076Z,64.96
2023-01-13T08:07:29.243Z,65.50
2023-01-13T08:10:35.922Z,65.78
2023-01-13T08:13:39.819Z,66.01
2023-01-13T08:16:43.394Z,65.89
2023-01-13T08:19:48.841Z,66.16
2023-01-13T08:22:52.339Z,66.29
2023-01-13T08:25:56.412Z,65.93
2023-01-13T08:29:01.562Z,65.34
2023-01-13T08:32:06.637Z,65.25
2023-01-13T08:35:12.261Z,64.89
2023-01-13T08:38:20.338Z,64.52
2023-01-13T08:41:37.733Z,64.55
2023-01-13T08:44:42.228Z,64.39
2023-01-13T08:48:04.048Z,64.74
2023-01-13T08:51:12.555Z,65.06
2023-01-13T08:54:16.568Z,65.01
2023-01-13T08:57:22.666Z,65.04
2023-01-13T09:00:26.385Z,64.98
2023-01-13T09:03:30.199Z,64.11
2023-01-13T09:06:35.562Z,63.82
2023-01-13T09:09:42.082Z,63.72
2023-01-13T09:13:05.473Z,64.71
2023-01-13T09:16:10.669Z,64.22
2023-01-13T09:19:14.263Z,64.42
2023-01-13T09:22:22.002Z,63.92
2023-01-13T09:25:25.907Z,63.78
2023-01-13T09:28:29.755Z,64.85
2023-01-13T09:31:38.091Z,65.43
2023-01-13T09:35:00.246Z,64.28
2023-01-13T09:38:06.563Z,65.02
2023-01-13T09:41:35.221Z,65.44
2023-01-13T09:44:47.024Z,65.47
2023-01-13T09:47:57.933Z,65.98
2023-01-13T09:51:09.855Z,65.82
2023-01-13T09:54:33.158Z,65.35
2023-01-13T09:57:40.084Z,65.25
2023-01-13T10:00:57.684Z,64.68
2023-01-13T10:04:05.812Z,64.10
2023-01-13T10:07:17.549Z,64.84
2023-01-13T10:10:37.280Z,65.13
2023-01-13T10:13:42.427Z,65.75
2023-01-13T10:16:53.995Z,66.22
2023-01-13T10:20:05.542Z,65.95
2023-01-13T10:23:26.191Z,65.15
2023-01-13T10:26:46.213Z,65.75
2023-01-13T10:29:50.183Z,65.79
2023-01-13T10:32:58.016Z,65.05
2023-01-13T10:36:05.977Z,65.78
2023-01-13T10:39:18.430Z,64.87
2023-01-13T10:42:25.556Z,64.97
2023-01-13T10:45:35.753Z,64.64
2023-01-13T10:48:42.239Z,64.96
2023-01-13T10:51:46.475Z,64.51
2023-01-13T10:54:53.021Z,64.04
2023-01-13T10:57:58.528Z,63.52
2023-01-13T11:01:04.208Z,63.81
2023-01-13T11:04:28.804Z,62.74
2023-01-13T11:07:36.471Z,62.89
2023-01-13T11:10:47.693Z,63.13
2023-01-13T11:14:13.526Z,62.86
2023-01-13T11:17:34.649Z,62.62
2023-01-13T11:20:46.871Z,62.17
2023-01-13T11:24:04.220Z,62.21
2023-01-13T11:27:17.677Z,61.62
2023-01-13T11:30:36.048Z,61.67
2023-01-13T11:34:00.794Z,60.65
2023-01-13T11:37:13.009Z,61.23
2023-01-13T11:40:23.286Z,62.20
2023-01-13T11:43:34.367Z,61.55
2023-01-13T11:46:42.880Z,61.63
2023-01-13T11:49:50.592Z,61.76
2023-01-13T11:53:12.934Z,61.53
2023-01-13T11:56:44.380Z,61.59
2023-01-13T12:00:06.294Z,61.37
2023-01-13T12:03:39.082Z,61.27
2023-01-13T12:06:43.665Z,61.32
2023-01-13T12:10:05.292Z,60.79
2023-01-13T12:13:24.221Z,60.41
2023-01-13T12:16:35.213Z,60.58
2023-01-13T12:19:50.981Z,60.44
2023-01-13T12:23:02.269Z,60.37
2023-01-13T12:26:12.191Z,60.39
2023-01-13T12:29:19.604Z,60.45
2023-01-13T12:32:36.811Z,60.46
2023-01-13T12:35:51.183Z,61.13
2023-01-13T12:38:59.624Z,60.95
2023-01-13T12:42:32.892Z,60.63
2023-01-13T12:45:37.884Z,60.48
2023-01-13T12:49:04.690Z,60.95
2023-01-13T12:52:20.283Z,61.31
2023-01-13T12:55:30.232Z,62.19
2023-01-13T12:58:34.865Z,62.60
2023-01-13T13:01:39.957Z,62.91
2023-01-13T13:04:49.703Z,63.26
2023-01-13T13:08:06.257Z,63.20
2023-01-13T13:11:43.866Z,62.79
2023-01-13T13:15:05.370Z,63.41
2023-01-13T13:18:36.320Z,63.88
2023-01-13T13:22:19.181Z,63.13
2023-01-13T13:25:36.786Z,63.70
2023-01-13T13:28:58.982Z,63.82
2023-01-13T13:32:32.607Z,64.03
2023-01-13T13:35:53.016Z,64.37
2023-01-13T13:39:39.710Z,63.68
2023-01-13T13:43:09.878Z,63.49
2023-01-13T13:46:45.746Z,63.85
2023-01-13T13:49:54.613Z,63.93
2023-01-13T13:53:07.174Z,63.71
2023-01-13T13:56:22.683Z,64.34
2023-01-13T13:59:31.242Z,64.23
2023-01-13T14:02:39.002Z,64.27
2023-01-13T14:05:54.793Z,63.89
2023-01-13T14:09:01.494Z,64.30
2023-01-13T14:12:16.539Z,63.99
2023-01-13T14:15:39.231Z,64.10
2023-01-13T14:18:46.977Z,63.82
2023-01-13T14:21:51.008Z,63.44
2023-01-13T14:24:57.836Z,63.54
2023-01-13T14:28:09.788Z,63.42
2023-01-13T14:31:23.286Z,63.28
2023-01-13T14:34:33.290Z,63.27
2023-01-13T14:37:40.335Z,63.35
2023-01-13T14:40:47.620Z,63.41
2023-01-13T14:43:57.868Z,63.78
2023-01-13T14:47:27.111Z,64.09
2023-01-13T14:50:34.811Z,64.19
2023-01-13T14:53:46.551Z,64.34
2023-01-13T14:56:55.286Z,64.01
2023-01-13T15:00:05.416Z,63.68
2023-01-13T15:03:19.198Z,64.09
2023-01-13T15:06:30.952Z,64.20
2023-01-13T15:09:43.162Z,64.16
2023-01-13T15:12:51.260Z,64.79
2023-01-13T15:15:59.574Z,64.63
2023-01-13T15:19:05.066Z,64.34
2023-01-13T15:22:11.518Z,64.19
2023-01-13T15:25:20.388Z,64.21
2023-01-13T15:28:35.904Z,63.93
2023-01-13T15:31:41.928Z,63.82
2023-01-13T15:34:54.280Z,63.88
2023-01-13T15:37:59.844Z,63.71
2023-01-13T15:41:03.369Z,64.19
2023-01-13T15:44:21.070Z,64.35
2023-01-13T15:47:29.059Z,64.03
2023-01-13T15:50:34.729Z,63.63
2023-01-13T15:53:39.250Z,63.22
2023-01-13T15:56:43.328Z,63.24
2023-01-13T15:59:50.565Z,62.98
2023-01-13T16:02:56.353Z,62.78
2023-01-13T16:06:03.072Z,62.35
2023-01-13T16:09:13.001Z,62.46
2023-01-13T16:12:18.800Z,62.38
2023-01-13T16:15:25.086Z,61.91
2023-01-13T16:18:32.343Z,62.44
2023-01-13T16:21:50.637Z,62.11
2023-01-13T16:24:54.558Z,62.45
2023-01-13T16:28:23.619Z,63.57
2023-01-13T16:31:41.535Z,64.20
2023-01-13T16:34:47.438Z,64.64
2023-01-13T16:37:58.408Z,65.54
2023-01-13T16:41:05.892Z,65.54
2023-01-13T16:44:13.326Z,66.08
2023-01-13T16:47:23.359Z,65.91
2023-01-13T16:50:36.799Z,66.64
2023-01-13T16:53:44.824Z,67.26
2023-01-13T16:56:51.715Z,67.75
2023-01-13T17:00:07.755Z,67.31
2023-01-13T17:03:26.354Z,66.84
2023-01-13T17:06:39.844Z,68.10
2023-01-13T17:09:53.983Z,68.38
2023-01-13T17:13:14.843Z,68.04
2023-01-13T17:16:22.873Z,67.68
2023-01-13T17:19:30.112Z,67.11
2023-01-13T17:22:34.120Z,67.04
2023-01-13T17:25:39.930Z,67.38
2023-01-13T17:28:48.147Z,67.75
2023-01-13T17:31:57.461Z,67.28
2023-01-13T17:35:08.534Z,66.62
2023-01-13T17:38:20.534Z,66.46
2023-01-13T17:41:57.660Z,66.40
2023-01-13T17:45:12.587Z,65.41
2023-01-13T17:48:18.094Z,64.96
2023-01-13T17:51:30.741Z,64.95
2023-01-13T17:54:43.882Z,65.10
2023-01-13T17:57:50.219Z,65.16
2023-01-13T18:00:54.041Z,66.11
2023-01-13T18:03:59.107Z,66.15
2023-01-13T18:07:03.392Z,66.87
2023-01-13T18:10:08.224Z,67.38
2023-01-13T18:13:13.319Z,67.49
2023-01-13T18:16:19.197Z,66.88
2023-01-13T18:19:42.419Z,66.76
2023-01-13T18:23:09.301Z,67.18
2023-01-13T18:26:34.700Z,67.16
2023-01-13T18:29:47.226Z,67.93
2023-01-13T18:32:53.947Z,68.02
2023-01-13T18:36:01.536Z,67.83
2023-01-13T18:39:06.149Z,67.54
2023-01-13T18:42:30.295Z,67.28
2023-01-13T18:45:37.917Z,67.76
2023-01-13T18:48:44.641Z,67.55
2023-01-13T18:51:49.474Z,69.03
2023-01-13T18:54:54.307Z,69.38
2023-01-13T18:58:00.720Z,68.61
2023-01-13T19:01:06.974Z,68.29
2023-01-13T19:04:16.900Z,69.69
2023-01-13T19:07:24.760Z,69.18
2023-01-13T19:10:35.049Z,69.20
2023-01-13T19:13:39.002Z,69.05
2023-01-13T19:16:44.323Z,69.09
2023-01-13T19:20:11.732Z,68.65
2023-01-13T19:23:15.933Z,71.41
2023-01-13T19:26:19.840Z,69.88
2023-01-13T19:29:24.761Z,70.43
2023-01-13T19:32:33.858Z,69.83
2023-01-13T19:35:38.502Z,69.47
2023-01-13T19:38:42.799Z,69.39
2023-01-13T19:42:29.625Z,69.49
2023-01-13T19:45:35.373Z,69.22
2023-01-13T19:48:42.947Z,68.08
2023-01-13T19:51:47.941Z,69.11
2023-01-13T19:54:51.948Z,68.93
2023-01-13T19:57:59.584Z,69.32
2023-01-13T20:01:11.833Z,69.29
2023-01-13T20:04:31.375Z,69.86
2023-01-13T20:07:35.943Z,69.50
2023-01-13T20:10:43.452Z,69.85
2023-01-13T20:13:47.094Z,69.80
2023-01-13T20:16:51.409Z,69.35
2023-01-13T20:19:56.601Z,69.08
2023-01-13T20:23:00.627Z,68.45
2023-01-13T20:26:08.943Z,69.75
2023-01-13T20:29:13.154Z,69.62
2023-01-13T20:32:16.917Z,69.27
2023-01-13T20:35:24.418Z,69.25
2023-01-13T20:38:27.977Z,70.43
2023-01-13T20:41:49.726Z,69.84
2023-01-13T20:44:53.221Z,70.13
2023-01-13T20:47:57.613Z,70.51
2023-01-13T20:51:08.031Z,70.30
2023-01-13T20:54:14.108Z,70.65
2023-01-13T20:57:20.851Z,70.90
2023-01-13T21:00:24.978Z,70.32
2023-01-13T21:03:29.011Z,69.67
2023-01-13T21:06:36.475Z,69.75
2023-01-13T21:09:41.361Z,70.62
2023-01-13T21:13:04.000Z,70.46
2023-01-13T21:16:10.847Z,70.94
2023-01-13T21:19:18.297Z,70.95
2023-01-13T21:22:23.739Z,71.15
2023-01-13T21:25:35.212Z,70.61
2023-01-13T21:28:44.486Z,69.67
2023-01-13T21:31:50.324Z,69.37
2023-01-13T21:34:53.942Z,69.57
2023-01-13T21:38:02.332Z,69.75
2023-01-13T21:41:14.739Z,70.43
2023-01-13T21:44:39.412Z,69.82
2023-01-13T21:47:52.137Z,70.46
2023-01-13T21:50:56.184Z,69.72
2023-01-13T21:54:03.248Z,69.08
2023-01-13T21:57:07.752Z,69.50
2023-01-13T22:00:13.425Z,69.62
2023-01-13T22:03:26.706Z,69.42
2023-01-13T22:06:32.255Z,69.29
2023-01-13T22:09:41.884Z,68.64
2023-01-13T22:12:54.196Z,69.40
2023-01-13T22:16:04.741Z,68.93
2023-01-13T22:19:11.866Z,69.02
2023-01-13T22:22:18.583Z,68.66
2023-01-13T22:25:28.047Z,68.95
2023-01-13T22:28:34.394Z,68.42
2023-01-13T22:31:39.462Z,67.64
2023-01-13T22:34:49.066Z,68.28
2023-01-13T22:37:52.479Z,67.62
2023-01-13T22:41:07.939Z,67.57
2023-01-13T22:44:16.695Z,66.94
2023-01-13T22:47:24.259Z,66.02
2023-01-13T22:50:28.916Z,67.58
2023-01-13T22:53:35.015Z,67.16
2023-01-13T22:56:43.399Z,66.77
2023-01-13T22:59:49.301Z,66.16
2023-01-13T23:02:57.680Z,67.28
2023-01-13T23:06:03.215Z,66.86
2023-01-13T23:09:10.610Z,66.96
2023-01-13T23:12:16.606Z,67.60
2023-01-13T23:15:22.967Z,66.94
2023-01-13T23:18:27.442Z,67.42
2023-01-13T23:21:33.271Z,67.02
2023-01-13T23:24:37.617Z,67.07
2023-01-13T23:27:42.603Z,67.48
2023-01-13T23:30:46.662Z,66.46
2023-01-13T23:33:50.433Z,66.02
2023-01-13T23:36:54.255Z,66.52
2023-01-13T23:39:57.695Z,66.43
2023-01-13T23:43:04.070Z,66.53
2023-01-13T23:46:12.097Z,66.58
2023-01-13T23:49:17.033Z,67.13
2023-01-13T23:52:20.666Z,67.26
2023-01-13T23:55:28.136Z,66.74
2023-01-13T23:58:33.609Z,66.13
